Main page
METAR-TAF:

METAR-TAF

Airports :

Herat International Airport

Herat, Afghanistan

latitude: 34-13N, longitude: 062-13E, elevation: 964 m

Current weather observation

The report was made 5 hours and 18 minutes ago, at 16:55 UTC
Calm wind
Temperature 1°C
Humidity 47%
Pressure 1019 hPa
Visibility 10 km or more
no clouds below 1500 m and no cumulonimbus

METAR: OAHR 221655Z 00000KT CAVOK 01/M09 Q1019 RMK A3011 BLU

Time: 02:43 (22:13 UTC)

Forecast

The report was made 5 hours and 13 minutes ago, at 17:00 UTC
Forecast valid from 22 at 18 UTC to 23 at 18 UTC
Wind 2 kt from variable directions
Visibility 10 km or more
no clouds below 1500 m and no cumulonimbus
Becoming
from 23 at 03 UTC to 23 at 05 UTC
Wind 5 kt from the East

TAF: OAHR 221700Z 2218/2318 VRB02KT CAVOK BECMG 2303/2305 09005KT

Weather observations and forecasts of more than 4000 airports (METAR and TAF reports).

The available stations are represented by yellow and red dots on the map.

Hover mouse over dot to see the name of the station.

Then click to see weather observations and forecasts.

To change the map : click on the green buttons with a black cross to zoom in, on the green button with a dash to zoom out, or on the green arrows for adjacent maps.


METAR-TAF: